Bond, Illinois
Current Conditions -  °F | °C
As of 10:53 PM on Tuesday 21 Oct 2014 (Local Time) from KLWV Reporting Station
Clear Clear  
Wind Chill: 44°   Ceiling: Unl
Heat Index: 48°   Visibility: 10mi
Dew Point: 44°   Wind: 8mph
Humidity: 86%   Direction: 10°N
Pressure: 30.21"   Gusts: NA
Location:  38.7501°N, 87.6141°W
Report Text: KLWV 220353Z AUTO 01007KT 10SM CLR 09/07 A3021 RMK AO2 SLP230 T00890067
Loading
Personal Weather Stations






























Interactive Weather Map New forecast layout! Learn more

10-Day Weather Forecast

Advertisements
Track Severe Weather on mobile